Flugplatz Bartholomä-Amalienhof

Für EDPU sind keine METAR/TAF Berichte vorhanden.
Es werden die Flugwettermeldungen vom Flugplatz Adolf Würth in 44 km Entfernung angezeigt.

Bericht für EDTY

vom 17.09. um 13:50 UTC

Wind 10 kt aus 260°

Sichtweite 10 km oder mehr

gering bewölkt in 3100 ft

Temperatur 18.0°C

Taupunkt 10.0°C

Luftfeuchtigkeit 59%

Luftdruck 1019 hPa

EDTY 171350Z 26010KT 230V290 9999 FEW031 18/10 Q1019

Prognose für EDTY

vom 17.09. um 00:00 UTC

Zwischen 00:00 UTC und 00:00 UTC

Wind 8 kt aus 300°

Sichtweite 10 km oder mehr

aufgebrochene Bewölkung in 1300 ft


Zwischen 00:00 und 00:00 UTC übergehend zu

Wind 8 kt aus 300°

Sichtweite 10 km oder mehr

aufgelockert bewölkt in 1300 ft

TAF EDTY 171100Z 1712/1721 30008KT 9999 BKN013 BECMG 1712/1715 SCT013
Impressum